In Rescue
 
Open Full Screen Window  High Contrast Mode
Wind Gusting 00 knots
06
October 25, 2021 3:49 PM CDT
Weather Information
Wind Direction
  090 °
Wind Speed
  06 kt (7 mph)
Wind Gust
  00 kt (0 mph)
Altimeter
30.13 in
Visibility
10 SM
Temperature
12° C
54° F
Dewpoint
-09° C
16° F
Humidity
22%
1hr Rain Fall
00.00 in.
24hr Rain Fall
00.00 in.
Sky Condition
Clear
VFR

METAR KLJF 252049Z AUTO 09006KT 10SM CLR 12/M09 A3013 RMK AO2

FAA Disclaimer: The data displayed is for advisory purposes only and is not to be used for flight planning or operations.